createdAt,value
2023-03-12T00:00:16.557Z,99.90
2023-03-12T00:02:43.678Z,99.90
2023-03-12T00:05:11.044Z,99.90
2023-03-12T00:07:38.706Z,99.90
2023-03-12T00:10:06.907Z,99.90
2023-03-12T00:12:33.956Z,99.90
2023-03-12T00:15:01.720Z,99.90
2023-03-12T00:17:30.320Z,99.90
2023-03-12T00:19:57.211Z,99.90
2023-03-12T00:22:25.793Z,99.90
2023-03-12T00:24:54.094Z,99.90
2023-03-12T00:27:21.355Z,99.90
2023-03-12T00:29:48.420Z,99.90
2023-03-12T00:32:15.913Z,99.90
2023-03-12T00:34:43.575Z,99.90
2023-03-12T00:37:10.647Z,99.90
2023-03-12T00:39:37.484Z,99.90
2023-03-12T00:42:04.563Z,99.90
2023-03-12T00:44:31.430Z,99.90
2023-03-12T00:46:58.308Z,99.90
2023-03-12T00:49:25.282Z,99.90
2023-03-12T00:51:52.191Z,99.90
2023-03-12T00:54:19.077Z,99.90
2023-03-12T00:56:46.847Z,99.90
2023-03-12T00:59:15.052Z,99.90
2023-03-12T01:01:43.181Z,99.90
2023-03-12T01:04:10.284Z,99.90
2023-03-12T01:06:37.290Z,99.90
2023-03-12T01:09:05.921Z,99.90
2023-03-12T01:11:33.111Z,99.90
2023-03-12T01:14:01.058Z,99.90
2023-03-12T01:16:30.272Z,99.90
2023-03-12T01:19:01.849Z,99.90
2023-03-12T01:21:30.258Z,99.90
2023-03-12T01:23:57.310Z,99.90
2023-03-12T01:26:24.687Z,99.90
2023-03-12T01:28:51.599Z,99.90
2023-03-12T01:31:19.473Z,99.90
2023-03-12T01:33:50.493Z,99.90
2023-03-12T01:36:25.902Z,99.90
2023-03-12T01:38:55.133Z,99.90
2023-03-12T01:41:23.587Z,99.90
2023-03-12T01:43:51.093Z,99.90
2023-03-12T01:46:43.180Z,99.90
2023-03-12T01:49:27.236Z,99.90
2023-03-12T01:52:01.905Z,99.90
2023-03-12T01:54:37.492Z,99.90
2023-03-12T01:57:08.070Z,99.90
2023-03-12T01:59:44.749Z,99.90
2023-03-12T02:02:14.190Z,99.90
2023-03-12T02:04:42.607Z,99.90
2023-03-12T02:07:14.982Z,99.90
2023-03-12T02:09:48.753Z,99.90
2023-03-12T02:12:17.171Z,99.90
2023-03-12T02:14:44.429Z,99.90
2023-03-12T02:17:12.034Z,99.90
2023-03-12T02:20:00.427Z,99.90
2023-03-12T02:22:28.670Z,99.90
2023-03-12T02:25:24.605Z,99.90
2023-03-12T02:27:52.002Z,99.90
2023-03-12T02:30:19.769Z,99.90
2023-03-12T02:32:48.719Z,99.90
2023-03-12T02:35:17.353Z,99.90
2023-03-12T02:37:57.537Z,99.90
2023-03-12T02:40:45.934Z,99.90
2023-03-12T02:43:13.108Z,99.90
2023-03-12T02:45:40.078Z,99.90
2023-03-12T02:48:09.625Z,99.90
2023-03-12T02:50:36.472Z,99.90
2023-03-12T02:53:03.320Z,99.90
2023-03-12T02:55:30.225Z,99.90
2023-03-12T02:57:57.035Z,99.90
2023-03-12T03:00:23.881Z,99.90
2023-03-12T03:02:50.892Z,99.90
2023-03-12T03:05:17.951Z,99.90
2023-03-12T03:07:44.725Z,99.90
2023-03-12T03:10:11.760Z,99.90
2023-03-12T03:12:38.624Z,99.90
2023-03-12T03:15:06.377Z,99.90
2023-03-12T03:17:33.233Z,99.90
2023-03-12T03:20:00.188Z,99.90
2023-03-12T03:22:27.286Z,99.90
2023-03-12T03:24:54.612Z,99.90
2023-03-12T03:27:21.496Z,99.90
2023-03-12T03:32:15.119Z,99.90
2023-03-12T03:34:41.982Z,99.90
2023-03-12T03:37:08.805Z,99.90
2023-03-12T03:39:35.765Z,99.90
2023-03-12T03:42:02.636Z,99.90
2023-03-12T03:44:30.467Z,99.90
2023-03-12T03:46:57.393Z,99.90
2023-03-12T03:49:27.344Z,99.90
2023-03-12T03:51:54.406Z,99.90
2023-03-12T03:54:21.268Z,99.90
2023-03-12T03:56:48.149Z,99.90
2023-03-12T03:59:14.977Z,99.90
2023-03-12T04:01:41.876Z,99.90
2023-03-12T04:04:09.046Z,99.90
2023-03-12T04:06:36.107Z,99.90
2023-03-12T04:09:02.939Z,99.90
2023-03-12T04:11:29.877Z,99.90
2023-03-12T04:13:57.783Z,99.90
2023-03-12T04:16:24.981Z,99.90
2023-03-12T04:18:51.841Z,99.90
2023-03-12T04:21:18.988Z,99.90
2023-03-12T04:23:45.780Z,99.90
2023-03-12T04:26:12.637Z,99.90
2023-03-12T04:28:39.493Z,99.90
2023-03-12T04:31:07.847Z,99.90
2023-03-12T04:33:37.614Z,99.90
2023-03-12T04:36:05.126Z,99.90
2023-03-12T04:38:32.170Z,99.90
2023-03-12T04:41:04.137Z,99.90
2023-03-12T04:43:32.005Z,99.90
2023-03-12T04:45:59.371Z,99.90
2023-03-12T04:48:27.236Z,99.90
2023-03-12T04:50:54.800Z,99.90
2023-03-12T04:53:22.490Z,99.90
2023-03-12T04:55:49.717Z,99.90
2023-03-12T04:58:17.175Z,99.90
2023-03-12T05:00:44.651Z,99.90
2023-03-12T05:03:12.625Z,99.90
2023-03-12T05:05:39.484Z,99.90
2023-03-12T05:08:06.632Z,99.90
2023-03-12T05:10:33.560Z,99.90
2023-03-12T05:13:00.380Z,99.90
2023-03-12T05:15:27.403Z,99.90
2023-03-12T05:17:54.885Z,99.90
2023-03-12T05:20:22.211Z,99.90
2023-03-12T05:22:49.123Z,99.90
2023-03-12T05:25:16.001Z,99.90
2023-03-12T05:27:43.007Z,99.90
2023-03-12T05:30:10.762Z,99.90
2023-03-12T05:32:39.026Z,99.90
2023-03-12T05:35:06.250Z,99.90
2023-03-12T05:37:33.214Z,99.90
2023-03-12T05:40:00.741Z,99.90
2023-03-12T05:42:27.576Z,99.90
2023-03-12T05:44:54.458Z,99.90
2023-03-12T05:47:22.214Z,99.90
2023-03-12T05:49:49.132Z,99.90
2023-03-12T05:52:16.233Z,99.90
2023-03-12T05:54:43.032Z,99.90
2023-03-12T05:57:09.844Z,99.90
2023-03-12T05:59:36.699Z,99.90
2023-03-12T06:02:03.750Z,99.90
2023-03-12T06:04:30.628Z,99.90
2023-03-12T06:06:57.541Z,99.90
2023-03-12T06:09:24.529Z,99.90
2023-03-12T06:11:51.377Z,99.90
2023-03-12T06:14:18.260Z,99.90
2023-03-12T06:16:45.268Z,99.90
2023-03-12T06:19:14.327Z,99.90
2023-03-12T06:21:43.013Z,99.90
2023-03-12T06:24:10.345Z,99.90
2023-03-12T06:26:37.280Z,99.90
2023-03-12T06:29:04.128Z,99.90
2023-03-12T06:31:31.122Z,99.90
2023-03-12T06:33:58.035Z,99.90
2023-03-12T06:36:25.567Z,99.90
2023-03-12T06:38:52.816Z,99.90
2023-03-12T06:41:21.077Z,99.90
2023-03-12T06:43:48.057Z,99.90
2023-03-12T06:46:17.838Z,99.90
2023-03-12T06:48:46.335Z,99.90
2023-03-12T06:51:15.806Z,99.90
2023-03-12T06:53:43.264Z,99.90
2023-03-12T06:56:11.137Z,99.90
2023-03-12T06:58:39.016Z,99.90
2023-03-12T07:01:06.222Z,99.90
2023-03-12T07:03:33.384Z,99.90
2023-03-12T07:06:00.854Z,99.60
2023-03-12T07:08:31.100Z,96.70
2023-03-12T07:11:01.602Z,93.40
2023-03-12T07:13:29.507Z,90.80
2023-03-12T07:15:56.516Z,89.10
2023-03-12T07:18:23.520Z,89.50
2023-03-12T07:20:50.341Z,90.30
2023-03-12T07:23:18.197Z,91.50
2023-03-12T07:25:45.480Z,91.60
2023-03-12T07:28:13.199Z,90.90
2023-03-12T07:30:40.809Z,88.80
2023-03-12T07:33:10.950Z,85.20
2023-03-12T07:35:39.657Z,76.30
2023-03-12T07:38:07.478Z,68.90
2023-03-12T07:40:35.099Z,63.00
2023-03-12T07:43:02.846Z,56.70
2023-03-12T07:45:29.984Z,53.50
2023-03-12T07:47:56.968Z,50.80
2023-03-12T07:50:24.665Z,49.30
2023-03-12T07:52:51.660Z,48.50
2023-03-12T07:55:18.686Z,46.90
2023-03-12T07:57:45.842Z,46.80
2023-03-12T08:00:13.610Z,47.20
2023-03-12T08:02:40.788Z,48.40
2023-03-12T08:05:08.244Z,50.00
2023-03-12T08:07:36.123Z,51.80
2023-03-12T08:10:06.124Z,52.90
2023-03-12T08:12:33.100Z,55.50
2023-03-12T08:14:59.942Z,57.60
2023-03-12T08:17:26.772Z,59.20
2023-03-12T08:19:54.159Z,61.00
2023-03-12T08:22:21.315Z,62.80
2023-03-12T08:24:48.128Z,63.30
2023-03-12T08:27:15.104Z,64.50
2023-03-12T08:29:42.371Z,65.90
2023-03-12T08:32:10.982Z,66.70
2023-03-12T08:34:38.110Z,68.10
2023-03-12T08:37:05.893Z,69.40
2023-03-12T08:39:33.205Z,69.00
2023-03-12T08:42:00.666Z,70.20
2023-03-12T08:44:27.736Z,71.50
2023-03-12T08:46:54.685Z,73.10
2023-03-12T08:49:22.296Z,74.80
2023-03-12T08:51:51.835Z,75.90
2023-03-12T08:54:20.228Z,77.30
2023-03-12T08:56:52.216Z,78.60
2023-03-12T08:59:23.569Z,80.00
2023-03-12T09:01:50.848Z,81.60
2023-03-12T09:04:18.194Z,82.70
2023-03-12T09:06:45.222Z,84.00
2023-03-12T09:09:12.894Z,85.10
2023-03-12T09:11:41.002Z,86.70
2023-03-12T09:14:57.478Z,87.90
2023-03-12T09:16:55.549Z,88.60
2023-03-12T09:19:22.701Z,88.50
2023-03-12T09:21:49.849Z,88.20
2023-03-12T09:24:17.173Z,88.10
2023-03-12T09:26:44.108Z,87.70
2023-03-12T09:29:11.056Z,88.30
2023-03-12T09:31:38.045Z,89.60
2023-03-12T09:34:05.530Z,90.00
2023-03-12T09:36:33.216Z,89.70
2023-03-12T09:39:00.465Z,88.60
2023-03-12T09:41:30.803Z,87.90
2023-03-12T09:44:13.957Z,87.00
2023-03-12T09:46:48.811Z,86.20
2023-03-12T09:49:38.516Z,83.10
2023-03-12T09:52:18.264Z,80.70
2023-03-12T09:54:54.447Z,76.80
2023-03-12T09:57:25.133Z,76.80
2023-03-12T09:59:52.546Z,74.90
2023-03-12T10:02:57.953Z,73.40
2023-03-12T10:05:45.970Z,72.10
2023-03-12T10:08:27.264Z,67.40
2023-03-12T10:11:04.017Z,59.70
2023-03-12T10:13:40.093Z,52.90
2023-03-12T10:16:30.366Z,48.30
2023-03-12T10:19:17.733Z,44.40
2023-03-12T10:22:02.747Z,41.30
2023-03-12T10:24:39.884Z,38.80
2023-03-12T10:27:14.583Z,37.10
2023-03-12T10:29:45.189Z,36.80
2023-03-12T10:32:18.572Z,35.30
2023-03-12T10:35:03.271Z,34.30
2023-03-12T10:37:57.128Z,34.10
2023-03-12T10:40:27.700Z,32.90
2023-03-12T10:42:55.300Z,32.40
2023-03-12T10:45:30.953Z,33.00
2023-03-12T10:48:03.304Z,32.50
2023-03-12T10:50:33.245Z,32.20
2023-03-12T10:53:23.956Z,31.80
2023-03-12T10:56:02.925Z,30.80
2023-03-12T10:58:44.681Z,30.70
2023-03-12T11:01:25.773Z,30.30
2023-03-12T11:04:07.728Z,30.90
2023-03-12T11:06:34.924Z,30.80
2023-03-12T11:09:17.738Z,31.10
2023-03-12T11:11:49.480Z,31.40
2023-03-12T11:14:18.542Z,31.90
2023-03-12T11:16:45.936Z,32.10
2023-03-12T11:19:15.758Z,31.90
2023-03-12T11:22:02.084Z,32.30
2023-03-12T11:24:29.861Z,32.40
2023-03-12T11:27:07.538Z,33.70
2023-03-12T11:29:43.613Z,36.80
2023-03-12T11:32:18.637Z,39.70
2023-03-12T11:34:49.972Z,43.10
2023-03-12T11:38:04.705Z,44.60
2023-03-12T11:41:00.147Z,46.70
2023-03-12T11:43:43.533Z,48.10
2023-03-12T11:46:39.172Z,49.10
2023-03-12T11:49:17.881Z,50.10
2023-03-12T11:52:15.732Z,51.80
2023-03-12T11:55:04.106Z,53.20
2023-03-12T11:57:57.102Z,53.60
2023-03-12T12:00:50.740Z,54.10
2023-03-12T12:03:38.672Z,54.30
2023-03-12T12:06:23.114Z,54.60
2023-03-12T12:09:09.298Z,55.30
2023-03-12T12:11:51.185Z,54.40
2023-03-12T12:14:56.521Z,56.10
2023-03-12T12:17:23.387Z,57.60
2023-03-12T12:20:20.228Z,58.20
2023-03-12T12:22:57.314Z,57.40
2023-03-12T12:25:46.957Z,58.10
2023-03-12T12:28:25.986Z,59.50
2023-03-12T12:31:22.382Z,60.20
2023-03-12T12:34:21.503Z,60.30
2023-03-12T12:37:14.309Z,59.90
2023-03-12T12:39:47.781Z,60.40
2023-03-12T12:42:22.936Z,61.40
2023-03-12T12:44:53.547Z,62.50
2023-03-12T12:47:46.515Z,63.50
2023-03-12T12:50:21.022Z,64.40
2023-03-12T12:52:57.750Z,65.10
2023-03-12T12:55:37.851Z,64.70
2023-03-12T12:58:38.674Z,65.10
2023-03-12T13:01:06.526Z,65.10
2023-03-12T13:03:40.891Z,65.10
2023-03-12T13:06:08.598Z,65.50
2023-03-12T13:08:40.060Z,65.80
2023-03-12T13:11:23.459Z,66.30
2023-03-12T13:14:10.778Z,65.80
2023-03-12T13:16:39.829Z,66.00
2023-03-12T13:19:16.187Z,67.20
2023-03-12T13:22:21.594Z,66.90
2023-03-12T13:25:17.090Z,66.80
2023-03-12T13:27:46.573Z,66.40
2023-03-12T13:30:34.543Z,65.80
2023-03-12T13:33:04.369Z,65.20
2023-03-12T13:35:32.620Z,64.70
2023-03-12T13:38:02.996Z,65.00
2023-03-12T13:40:30.016Z,65.60
2023-03-12T13:43:13.627Z,66.00
2023-03-12T13:46:00.491Z,66.20
2023-03-12T13:48:28.116Z,66.80
2023-03-12T13:50:59.116Z,66.80
2023-03-12T13:53:35.751Z,67.60
2023-03-12T13:56:13.967Z,68.40
2023-03-12T13:58:48.927Z,68.50
2023-03-12T14:01:19.819Z,68.50
2023-03-12T14:04:04.220Z,68.70
2023-03-12T14:06:38.534Z,69.80
2023-03-12T14:09:25.168Z,69.70
2023-03-12T14:12:33.724Z,70.10
2023-03-12T14:15:07.450Z,69.40
2023-03-12T14:17:36.545Z,69.10
2023-03-12T14:20:12.099Z,70.70
2023-03-12T14:22:42.663Z,71.00
2023-03-12T14:25:14.275Z,71.20
2023-03-12T14:27:44.725Z,70.00
2023-03-12T14:30:24.939Z,70.70
2023-03-12T14:32:57.092Z,71.60
2023-03-12T14:35:47.091Z,71.90
2023-03-12T14:38:48.932Z,71.20
2023-03-12T14:41:22.920Z,70.30
2023-03-12T14:43:53.248Z,70.60
2023-03-12T14:46:23.044Z,71.80
2023-03-12T14:48:55.317Z,71.60
2023-03-12T14:51:36.299Z,70.90
2023-03-12T14:54:03.766Z,72.50
2023-03-12T14:56:35.399Z,72.10
2023-03-12T14:59:28.762Z,72.50
2023-03-12T15:02:13.515Z,73.20
2023-03-12T15:04:41.489Z,73.60
2023-03-12T15:07:12.810Z,74.20
2023-03-12T15:09:45.056Z,74.00
2023-03-12T15:12:24.997Z,73.70
2023-03-12T15:14:55.925Z,72.80
2023-03-12T15:17:29.331Z,71.60
2023-03-12T15:19:57.464Z,71.30
2023-03-12T15:22:27.954Z,70.00
2023-03-12T15:24:55.111Z,69.60
2023-03-12T15:27:25.279Z,69.20
2023-03-12T15:29:52.761Z,69.80
2023-03-12T15:32:22.711Z,70.50
2023-03-12T15:34:49.999Z,70.70
2023-03-12T15:37:38.777Z,71.30
2023-03-12T15:40:21.004Z,71.40
2023-03-12T15:42:48.781Z,71.60
2023-03-12T15:45:24.176Z,72.10
2023-03-12T15:47:55.221Z,73.10
2023-03-12T15:50:27.145Z,74.40
2023-03-12T15:53:01.493Z,74.60
2023-03-12T15:55:31.408Z,75.20
2023-03-12T15:57:59.367Z,75.50
2023-03-12T16:00:44.760Z,75.90
2023-03-12T16:03:20.098Z,76.20
2023-03-12T16:05:49.682Z,76.00
2023-03-12T16:08:22.849Z,76.50
2023-03-12T16:10:50.810Z,77.20
2023-03-12T16:13:20.885Z,78.30
2023-03-12T16:15:48.442Z,78.60
2023-03-12T16:18:20.634Z,78.10
2023-03-12T16:20:49.197Z,78.50
2023-03-12T16:23:17.015Z,78.70
2023-03-12T16:25:51.192Z,77.90
2023-03-12T16:28:20.431Z,77.60
2023-03-12T16:30:47.660Z,78.00
2023-03-12T16:33:17.532Z,79.00
2023-03-12T16:35:45.003Z,80.20
2023-03-12T16:38:11.938Z,81.50
2023-03-12T16:40:46.449Z,82.30
2023-03-12T16:43:23.134Z,82.60
2023-03-12T16:45:52.785Z,82.30
2023-03-12T16:48:23.247Z,81.80
2023-03-12T16:50:55.866Z,82.20
2023-03-12T16:53:24.170Z,81.30
2023-03-12T16:55:55.535Z,81.00
2023-03-12T16:58:24.174Z,81.10
2023-03-12T17:00:57.241Z,81.50
2023-03-12T17:03:37.108Z,82.30
2023-03-12T17:06:07.163Z,81.50
2023-03-12T17:08:36.146Z,81.60
2023-03-12T17:11:04.852Z,81.90
2023-03-12T17:13:32.146Z,81.90
2023-03-12T17:15:59.088Z,81.90
2023-03-12T17:18:26.625Z,82.20
2023-03-12T17:20:54.084Z,82.20
2023-03-12T17:23:21.366Z,82.50
2023-03-12T17:25:48.624Z,82.90
2023-03-12T17:28:16.025Z,83.20
2023-03-12T17:30:44.643Z,83.80
2023-03-12T17:33:15.633Z,84.10
2023-03-12T17:35:42.987Z,84.60
2023-03-12T17:38:11.017Z,85.20
2023-03-12T17:40:42.624Z,85.80
2023-03-12T17:43:09.883Z,86.30
2023-03-12T17:45:37.163Z,86.90
2023-03-12T17:48:04.783Z,87.50
2023-03-12T17:50:31.903Z,88.20
2023-03-12T17:52:58.993Z,89.30
2023-03-12T17:55:26.142Z,90.20
2023-03-12T17:57:53.094Z,90.70
2023-03-12T18:00:22.085Z,91.20
2023-03-12T18:02:50.050Z,91.70
2023-03-12T18:05:17.457Z,92.40
2023-03-12T18:07:47.173Z,93.00
2023-03-12T18:10:15.247Z,93.50
2023-03-12T18:12:42.316Z,94.20
2023-03-12T18:15:13.709Z,94.80
2023-03-12T18:17:50.472Z,95.10
2023-03-12T18:20:28.676Z,95.60
2023-03-12T18:23:04.075Z,95.90
2023-03-12T18:25:31.346Z,96.60
2023-03-12T18:27:58.253Z,97.10
2023-03-12T18:30:25.530Z,97.80
2023-03-12T18:32:52.950Z,98.60
2023-03-12T18:35:22.597Z,98.60
2023-03-12T18:37:51.958Z,99.00
2023-03-12T18:40:19.091Z,99.30
2023-03-12T18:42:45.968Z,99.70
2023-03-12T18:45:13.576Z,99.80
2023-03-12T18:47:40.755Z,99.90
2023-03-12T18:50:08.633Z,99.90
2023-03-12T18:52:36.080Z,99.90
2023-03-12T18:55:03.428Z,99.90
2023-03-12T18:57:30.780Z,99.90
2023-03-12T18:59:58.101Z,99.90
2023-03-12T19:02:25.327Z,99.90
2023-03-12T19:04:55.499Z,99.90
2023-03-12T19:07:23.060Z,99.90
2023-03-12T19:09:49.984Z,99.90
2023-03-12T19:12:17.136Z,99.90
2023-03-12T19:14:44.260Z,99.90
2023-03-12T19:17:11.998Z,99.90
2023-03-12T19:19:39.531Z,99.90
2023-03-12T19:22:06.882Z,99.90
2023-03-12T19:24:34.334Z,99.90
2023-03-12T19:27:01.337Z,99.90
2023-03-12T19:29:28.533Z,99.90
2023-03-12T19:31:55.475Z,99.90
2023-03-12T19:34:22.857Z,99.90
2023-03-12T19:36:49.999Z,99.90
2023-03-12T19:39:21.617Z,99.90
2023-03-12T19:41:50.034Z,99.90
2023-03-12T19:44:17.138Z,99.90
2023-03-12T19:46:44.109Z,99.90
2023-03-12T19:49:11.141Z,99.90
2023-03-12T19:51:40.438Z,99.90
2023-03-12T19:54:08.188Z,99.90
2023-03-12T19:56:36.823Z,99.90
2023-03-12T19:59:04.188Z,99.90
2023-03-12T20:01:31.276Z,99.90
2023-03-12T20:03:58.356Z,99.90
2023-03-12T20:06:25.307Z,99.90
2023-03-12T20:08:52.328Z,99.90
2023-03-12T20:11:19.462Z,99.90
2023-03-12T20:13:46.409Z,99.90
2023-03-12T20:16:14.062Z,99.90
2023-03-12T20:18:41.210Z,99.90
2023-03-12T20:21:08.754Z,99.90
2023-03-12T20:23:36.569Z,99.90
2023-03-12T20:26:05.265Z,99.90
2023-03-12T20:28:32.526Z,99.90
2023-03-12T20:31:16.449Z,99.90
2023-03-12T20:33:43.864Z,99.90
2023-03-12T20:36:13.456Z,99.90
2023-03-12T20:38:41.060Z,99.90
2023-03-12T20:41:15.620Z,99.90
2023-03-12T20:43:44.477Z,99.90
2023-03-12T20:46:14.125Z,99.90
2023-03-12T20:48:42.517Z,99.90
2023-03-12T20:51:10.442Z,99.90
2023-03-12T20:53:37.432Z,99.90
2023-03-12T20:56:06.936Z,99.90
2023-03-12T20:58:34.719Z,99.90
2023-03-12T21:01:02.933Z,99.90
2023-03-12T21:03:30.015Z,99.90
2023-03-12T21:05:59.706Z,99.90
2023-03-12T21:08:27.649Z,99.90
2023-03-12T21:10:58.488Z,99.90
2023-03-12T21:13:26.758Z,99.90
2023-03-12T21:15:54.125Z,99.90
2023-03-12T21:18:21.578Z,99.90
2023-03-12T21:20:49.029Z,99.90
2023-03-12T21:23:16.058Z,99.90
2023-03-12T21:25:43.499Z,99.90
2023-03-12T21:28:11.827Z,99.90
2023-03-12T21:30:39.342Z,99.90
2023-03-12T21:33:07.421Z,99.90
2023-03-12T21:35:34.561Z,99.90
2023-03-12T21:38:02.730Z,99.90
2023-03-12T21:40:30.048Z,99.90
2023-03-12T21:42:57.029Z,99.90
2023-03-12T21:45:24.120Z,99.90
2023-03-12T21:47:54.758Z,99.90
2023-03-12T21:50:22.810Z,99.90
2023-03-12T21:52:50.946Z,99.90
2023-03-12T21:55:19.122Z,99.90
2023-03-12T21:57:46.237Z,99.90
2023-03-12T22:00:14.731Z,99.90
2023-03-12T22:02:42.523Z,99.90
2023-03-12T22:05:10.235Z,99.90
2023-03-12T22:07:37.912Z,99.90
2023-03-12T22:10:12.011Z,99.90
2023-03-12T22:12:40.222Z,99.90
2023-03-12T22:15:08.380Z,99.90
2023-03-12T22:17:35.684Z,99.90
2023-03-12T22:20:02.895Z,99.90
2023-03-12T22:22:31.241Z,99.90
2023-03-12T22:24:58.125Z,99.90
2023-03-12T22:27:25.384Z,99.90
2023-03-12T22:29:53.159Z,99.90
2023-03-12T22:32:20.399Z,99.90
2023-03-12T22:34:47.642Z,99.90
2023-03-12T22:37:14.552Z,99.90
2023-03-12T22:39:43.399Z,99.90
2023-03-12T22:42:10.849Z,99.90
2023-03-12T22:44:41.417Z,99.90
2023-03-12T22:47:08.782Z,99.90
2023-03-12T22:49:35.664Z,99.90
2023-03-12T22:52:02.577Z,99.90
2023-03-12T22:54:29.426Z,99.90
2023-03-12T22:56:56.389Z,99.90
2023-03-12T22:59:23.360Z,99.90
2023-03-12T23:01:50.263Z,99.90
2023-03-12T23:04:17.223Z,99.90
2023-03-12T23:06:44.256Z,99.90
2023-03-12T23:09:11.483Z,99.90
2023-03-12T23:11:39.009Z,99.90
2023-03-12T23:14:05.837Z,99.90
2023-03-12T23:16:32.753Z,99.90
2023-03-12T23:19:00.132Z,99.90
2023-03-12T23:21:27.063Z,99.90
2023-03-12T23:23:54.561Z,99.90
2023-03-12T23:26:27.416Z,99.90
2023-03-12T23:28:56.377Z,99.90
2023-03-12T23:31:23.924Z,99.90
2023-03-12T23:33:51.218Z,99.90
2023-03-12T23:36:20.703Z,99.90
2023-03-12T23:38:48.395Z,99.90
2023-03-12T23:41:26.306Z,99.90
2023-03-12T23:43:53.402Z,99.90
2023-03-12T23:46:21.057Z,99.90
2023-03-12T23:48:48.100Z,99.90
2023-03-12T23:51:26.369Z,99.90
2023-03-12T23:53:57.337Z,99.90
2023-03-12T23:56:27.509Z,99.90
2023-03-12T23:58:54.901Z,99.90
